Time;durP1;ratioP1;P1;durP2;ratioP2;P2;SDS_P1;SDS_P2;PMS_P1;PMS_P2;Temp;Humidity;BMP_temperature;BMP_pressure;BME280_temperature;BME280_humidity;BME280_pressure;Samples;Min_cycle;Max_cycle;Signal;HPM_P1;HPM_P2
2023/09/25 00:01:38;;;;;;;4.47;0.90;;;;;;;-142.57;79.33;58199.19;5057651;28;20089;-84
2023/09/25 00:04:03;;;;;;;5.20;0.77;;;;;;;-142.57;78.59;58215.34;5054152;28;20062;-84
2023/09/25 00:06:29;;;;;;;4.45;1.02;;;;;;;-142.57;78.05;58239.63;5054881;28;20029;-85
2023/09/25 00:08:55;;;;;;;1.63;0.70;;;;;;;-142.57;78.78;58183.00;5055053;28;20028;-83
2023/09/25 00:11:21;;;;;;;4.47;0.88;;;;;;;-142.57;78.51;58199.19;5055031;28;20029;-84
2023/09/25 00:13:47;;;;;;;1.88;0.80;;;;;;;-142.57;78.19;58213.34;5054664;28;20041;-84
2023/09/25 00:16:13;;;;;;;1.70;0.90;;;;;;;-142.57;77.93;58251.75;5054156;28;20114;-83
2023/09/25 00:18:39;;;;;;;1.25;0.90;;;;;;;-142.57;77.14;58280.06;5053999;28;20033;-83
2023/09/25 00:21:05;;;;;;;3.15;0.70;;;;;;;-142.57;76.49;58328.59;5053923;28;20028;-83
2023/09/25 00:23:31;;;;;;;2.55;1.10;;;;;;;-142.57;76.23;58336.66;5054099;28;20099;-84
2023/09/25 00:26:01;;;;;;;3.90;0.93;;;;;;;-142.57;80.15;58183.00;5053811;28;20025;-83
2023/09/25 00:28:27;;;;;;;3.05;1.10;;;;;;;-142.57;80.21;58183.00;5052570;28;20037;-84
2023/09/25 00:30:53;;;;;;;6.15;1.05;;;;;;;-142.57;80.11;58197.16;5052538;28;20040;-83
2023/09/25 00:33:18;;;;;;;1.15;0.68;;;;;;;-142.57;79.36;58296.22;5054209;28;20037;-83
2023/09/25 00:35:44;;;;;;;3.85;1.13;;;;;;;-142.57;77.75;58255.78;5053857;28;20041;-83
2023/09/25 00:38:10;;;;;;;2.72;1.17;;;;;;;-142.57;77.19;58227.50;5053786;28;20064;-83
2023/09/25 00:40:36;;;;;;;2.72;1.08;;;;;;;-142.57;77.80;58243.66;5054336;28;20401;-83
2023/09/25 00:43:02;;;;;;;1.85;0.90;;;;;;;-142.57;77.79;58223.44;5054236;28;20028;-83
2023/09/25 00:45:28;;;;;;;4.13;0.90;;;;;;;-142.57;78.25;58098.09;5052916;28;20478;-83
2023/09/25 00:47:54;;;;;;;1.48;1.02;;;;;;;-142.57;80.52;58033.41;5052157;28;20049;-83
2023/09/25 00:50:20;;;;;;;6.10;1.25;;;;;;;-142.57;80.75;58005.09;5053242;28;20478;-84
2023/09/25 00:52:46;;;;;;;3.80;1.35;;;;;;;-142.57;82.79;57948.50;5053556;28;20114;-84
2023/09/25 00:55:16;;;;;;;4.82;1.10;;;;;;;-142.57;83.06;57954.56;5053197;28;20136;-83
2023/09/25 00:57:43;;;;;;;1.27;1.00;;;;;;;-142.57;83.79;57906.03;5052886;28;20040;-82
2023/09/25 01:00:13;;;;;;;3.58;1.10;;;;;;;-142.57;84.99;57966.69;5053705;28;20068;-84
2023/09/25 01:02:39;;;;;;;2.72;1.30;;;;;;;-142.57;85.01;57881.78;5054048;28;20080;-85
2023/09/25 01:05:09;;;;;;;1.67;0.85;;;;;;;-142.57;86.09;57877.72;5052389;28;20047;-83
2023/09/25 01:07:40;;;;;;;2.80;0.90;;;;;;;-142.57;85.85;57912.09;5052814;28;20059;-83
2023/09/25 01:10:15;;;;;;;1.52;0.98;;;;;;;-142.57;87.23;57883.81;5054246;28;20120;-82
2023/09/25 01:12:41;;;;;;;2.35;1.02;;;;;;;-142.57;88.69;57800.91;5055854;28;20041;-82
2023/09/25 01:15:07;;;;;;;2.55;1.23;;;;;;;-142.57;87.98;57863.59;5056519;28;20163;-82
2023/09/25 01:17:33;;;;;;;1.88;1.00;;;;;;;-142.57;88.06;57867.63;5054225;28;20045;-83
2023/09/25 01:20:13;;;;;;;2.42;1.20;;;;;;;-142.57;86.84;57932.31;5052968;28;20451;-82
2023/09/25 01:22:47;;;;;;;1.88;1.00;;;;;;;-142.57;87.85;57897.94;5041986;28;20025;-83
2023/09/25 01:25:16;;;;;;;1.88;1.15;;;;;;;-142.57;86.53;57944.44;5032334;28;20494;-85
2023/09/25 01:27:42;;;;;;;1.58;0.77;;;;;;;-142.57;86.00;58045.53;5032149;28;20047;-83
2023/09/25 01:30:09;;;;;;;2.97;1.00;;;;;;;-142.57;85.94;57904.00;5033183;28;20025;-84
2023/09/25 01:32:38;;;;;;;1.98;0.75;;;;;;;-142.57;84.99;57964.66;5032825;28;20033;-83
2023/09/25 01:35:08;;;;;;;2.83;0.90;;;;;;;-142.57;88.37;57827.19;5032824;28;20041;-83
2023/09/25 01:37:34;;;;;;;3.78;1.20;;;;;;;-142.57;90.10;57867.63;5032779;28;20044;-84
2023/09/25 01:40:00;;;;;;;3.92;1.08;;;;;;;-142.57;92.42;57746.31;5032924;28;20033;-83
2023/09/25 01:42:25;;;;;;;2.42;1.00;;;;;;;-142.57;95.69;57774.63;5032633;28;20386;-83
2023/09/25 01:44:51;;;;;;;1.33;0.88;;;;;;;-142.57;95.44;57758.47;5032731;28;20030;-83
2023/09/25 01:47:20;;;;;;;4.40;1.10;;;;;;;-142.57;97.80;57665.47;5032658;28;20051;-83
2023/09/25 01:49:45;;;;;;;2.65;1.13;;;;;;;-142.57;98.52;57677.59;5032458;28;20076;-82
2023/09/25 01:52:12;;;;;;;1.20;0.98;;;;;;;-142.57;98.24;57722.06;5032209;28;20034;-82
2023/09/25 01:54:40;;;;;;;1.65;0.90;;;;;;;-142.57;99.86;57653.34;5031213;28;20065;-82
2023/09/25 01:57:06;;;;;;;5.20;1.05;;;;;;;-142.57;100.00;57505.78;5030777;28;20037;-83
2023/09/25 01:59:32;;;;;;;4.03;1.15;;;;;;;-142.57;100.00;57503.75;5028790;28;20045;-82
2023/09/25 02:01:58;;;;;;;4.70;1.10;;;;;;;-142.57;100.00;57507.78;5031956;28;20075;-83
2023/09/25 02:04:24;;;;;;;2.63;1.05;;;;;;;-142.57;100.00;57507.78;5036614;28;20040;-84
2023/09/25 02:06:50;;;;;;;6.80;1.48;;;;;;;-142.57;100.00;57493.63;5035057;28;20083;-83
2023/09/25 02:09:15;;;;;;;2.78;1.48;;;;;;;-142.57;100.00;57582.59;5035428;28;20162;-83
2023/09/25 02:11:41;;;;;;;7.85;1.10;;;;;;;-142.57;100.00;57621.00;5035772;28;20367;-84
2023/09/25 02:14:07;;;;;;;5.55;1.50;;;;;;;-142.57;100.00;57728.13;5035213;28;20045;-83
2023/09/25 02:16:32;;;;;;;3.08;1.55;;;;;;;-142.57;100.00;57649.28;5037869;28;20072;-83
2023/09/25 02:18:59;;;;;;;2.58;1.50;;;;;;;-142.57;100.00;57566.41;5037042;28;20037;-84
2023/09/25 02:21:25;;;;;;;1.52;1.20;;;;;;;-142.57;100.00;57572.47;5052479;28;20033;-82
2023/09/25 02:23:51;;;;;;;2.28;0.93;;;;;;;-142.57;100.00;57637.16;5058086;28;20037;-81
2023/09/25 02:26:16;;;;;;;1.48;0.98;;;;;;;-142.57;100.00;57629.06;5040765;28;20402;-82
2023/09/25 02:28:45;;;;;;;1.15;0.95;;;;;;;-142.57;100.00;57584.59;5037597;28;20029;-83
2023/09/25 02:31:13;;;;;;;7.47;1.20;;;;;;;-142.57;100.00;57519.91;5036541;28;20056;-81
2023/09/25 02:33:39;;;;;;;1.95;1.08;;;;;;;-142.57;100.00;57550.25;5034733;28;20533;-83
2023/09/25 02:36:06;;;;;;;3.67;1.20;;;;;;;-142.57;100.00;57661.44;5036111;28;20148;-83
2023/09/25 02:38:32;;;;;;;1.45;1.00;;;;;;;-142.57;100.00;57568.44;5036482;28;20033;-83
2023/09/25 02:40:57;;;;;;;2.78;1.25;;;;;;;-142.57;100.00;57542.16;5036477;28;20175;-83
2023/09/25 02:43:23;;;;;;;1.98;1.17;;;;;;;-142.57;100.00;57536.09;5036449;28;20042;-86
2023/09/25 02:45:51;;;;;;;1.27;0.85;;;;;;;-142.57;100.00;57536.09;5036844;28;20041;-84
2023/09/25 02:48:17;;;;;;;3.35;0.90;;;;;;;-142.57;100.00;57519.91;5035145;28;20034;-83
2023/09/25 02:50:43;;;;;;;2.97;1.10;;;;;;;-142.57;100.00;57517.91;5036478;28;20048;-85
2023/09/25 02:53:09;;;;;;;5.88;1.30;;;;;;;-142.57;100.00;57475.44;5035172;28;20033;-83
2023/09/25 02:55:35;;;;;;;1.50;0.93;;;;;;;-142.57;100.00;57483.53;5035788;28;20045;-84
2023/09/25 02:58:00;;;;;;;1.77;1.00;;;;;;;-142.57;100.00;57483.53;5034762;28;20040;-84
2023/09/25 03:00:26;;;;;;;1.63;1.02;;;;;;;-142.57;100.00;57483.53;5035345;28;20017;-84
2023/09/25 03:02:52;;;;;;;3.28;1.00;;;;;;;-142.57;100.00;57477.47;5055896;28;20539;-84
2023/09/25 03:05:19;;;;;;;5.95;1.20;;;;;;;-142.57;100.00;57457.25;5055062;28;20196;-82
2023/09/25 03:07:45;;;;;;;2.00;1.10;;;;;;;-142.57;100.00;57463.31;5054265;28;20037;-85
2023/09/25 03:10:11;;;;;;;1.98;0.93;;;;;;;-142.57;100.00;57505.78;5054385;28;20033;-85
2023/09/25 03:12:37;;;;;;;3.08;1.05;;;;;;;-142.57;100.00;57503.75;5056147;28;20029;-83
2023/09/25 03:15:04;;;;;;;1.60;0.90;;;;;;;-142.57;100.00;57487.56;5054322;28;20048;-83
2023/09/25 03:17:32;;;;;;;3.47;1.10;;;;;;;-142.57;100.00;57455.22;5054239;28;20131;-84
2023/09/25 03:19:58;;;;;;;3.05;0.95;;;;;;;-142.57;100.00;57475.44;5056067;28;20033;-82
2023/09/25 03:22:24;;;;;;;2.78;1.17;;;;;;;-142.57;100.00;57507.78;5055989;28;20056;-83
2023/09/25 03:24:50;;;;;;;3.70;1.02;;;;;;;-142.57;100.00;57467.38;5057834;28;20470;-83
2023/09/25 03:27:19;;;;;;;1.92;1.02;;;;;;;-142.57;100.00;57467.38;5055871;28;20502;-82
2023/09/25 03:29:44;;;;;;;3.17;0.95;;;;;;;-142.57;100.00;57410.75;5054181;28;20044;-83
2023/09/25 03:32:10;;;;;;;5.25;1.00;;;;;;;-142.57;100.00;57447.16;5054185;28;20037;-83
2023/09/25 03:34:36;;;;;;;5.57;1.10;;;;;;;-142.57;100.00;57467.38;5037432;28;20047;-80
2023/09/25 03:37:02;;;;;;;2.00;1.40;;;;;;;-142.57;100.00;57453.22;5053389;28;20515;-79
2023/09/25 03:39:29;;;;;;;3.47;1.60;;;;;;;-142.57;100.00;57406.72;5053459;28;20071;-81
2023/09/25 03:41:55;;;;;;;2.17;1.55;;;;;;;-142.57;100.00;57447.16;5054809;28;20041;-81
2023/09/25 03:44:21;;;;;;;8.27;1.95;;;;;;;-142.57;100.00;57435.03;5054940;28;20041;-83
2023/09/25 03:46:47;;;;;;;6.25;1.70;;;;;;;-142.57;100.00;57426.94;5054606;28;20036;-81
2023/09/25 03:49:12;;;;;;;3.63;1.95;;;;;;;-142.57;100.00;57467.38;5054790;28;20025;-82
2023/09/25 03:51:38;;;;;;;3.97;2.00;;;;;;;-142.57;100.00;57519.91;5055073;28;20037;-83
2023/09/25 03:54:03;;;;;;;3.35;2.25;;;;;;;-142.57;100.00;57485.56;5054997;28;20033;-82
2023/09/25 03:56:29;;;;;;;4.82;2.30;;;;;;;-142.57;100.00;57501.72;5057735;28;20037;-81
2023/09/25 03:58:55;;;;;;;6.82;2.30;;;;;;;-142.57;100.00;57604.81;5058066;28;20524;-82
2023/09/25 04:01:21;;;;;;;6.97;3.00;;;;;;;-142.57;100.00;57637.16;5058531;28;20512;-82
2023/09/25 04:03:47;;;;;;;7.45;3.40;;;;;;;-142.57;100.00;57608.88;5058921;28;20082;-82
2023/09/25 04:06:12;;;;;;;8.52;3.30;;;;;;;-142.57;100.00;57661.44;5059665;28;20037;-82
2023/09/25 04:08:38;;;;;;;4.75;3.05;;;;;;;-142.57;100.00;57645.25;5059299;28;20166;-84
2023/09/25 04:11:04;;;;;;;7.05;3.63;;;;;;;-142.57;100.00;57586.63;5056720;28;20029;-83
2023/09/25 04:13:31;;;;;;;7.95;3.28;;;;;;;-142.57;100.00;57560.34;5054920;28;20037;-85
2023/09/25 04:15:57;;;;;;;5.28;2.83;;;;;;;-142.57;100.00;57564.38;5055042;28;20040;-86
2023/09/25 04:18:23;;;;;;;5.22;3.20;;;;;;;-142.57;100.00;57576.53;5056516;28;20047;-83
2023/09/25 04:20:51;;;;;;;7.22;2.50;;;;;;;-142.57;100.00;57608.88;5055560;28;20080;-85
2023/09/25 04:23:17;;;;;;;5.47;2.58;;;;;;;-142.57;100.00;57659.41;5054582;28;20028;-83
2023/09/25 04:25:43;;;;;;;15.05;3.47;;;;;;;-142.57;100.00;57716.00;5054557;28;20037;-85
2023/09/25 04:28:11;;;;;;;12.00;2.65;;;;;;;-142.57;100.00;57556.31;5054652;28;20048;-85
2023/09/25 04:30:37;;;;;;;5.95;2.55;;;;;;;-142.57;100.00;57503.75;5052993;28;20056;-83
2023/09/25 04:33:03;;;;;;;4.88;2.40;;;;;;;-142.57;100.00;57457.25;5054048;28;20048;-83
2023/09/25 04:35:29;;;;;;;8.48;2.20;;;;;;;-142.57;100.00;57410.75;5052713;28;20096;-83
2023/09/25 04:37:55;;;;;;;4.22;1.80;;;;;;;-142.57;100.00;57378.41;5052562;28;20116;-84
2023/09/25 04:40:24;;;;;;;11.43;1.67;;;;;;;-142.57;100.00;57435.03;5054450;28;20033;-85
2023/09/25 04:42:50;;;;;;;5.70;1.73;;;;;;;-142.57;100.00;57503.75;5054004;28;20036;-84
2023/09/25 04:45:18;;;;;;;3.42;1.70;;;;;;;-142.57;100.00;57574.50;5052636;28;20044;-81
2023/09/25 04:47:45;;;;;;;5.55;2.33;;;;;;;-142.57;100.00;57455.22;5054916;28;20045;-85
2023/09/25 04:50:11;;;;;;;15.43;3.00;;;;;;;-142.57;100.00;57443.09;5053222;28;20455;-81
2023/09/25 04:52:40;;;;;;;8.73;2.30;;;;;;;-142.57;100.00;57382.47;5053183;28;20033;-81
2023/09/25 04:55:12;;;;;;;7.32;2.10;;;;;;;-142.57;100.00;57386.50;5052105;28;20508;-80
2023/09/25 04:57:40;;;;;;;4.43;1.85;;;;;;;-142.57;100.00;57370.34;5050916;28;20045;-79
2023/09/25 05:00:27;;;;;;;3.20;1.80;;;;;;;-142.57;100.00;57360.22;5052746;28;20093;-81
2023/09/25 05:02:54;;;;;;;10.07;1.50;;;;;;;-142.57;100.00;57309.69;5047927;28;20060;-81
2023/09/25 05:05:20;;;;;;;4.63;1.83;;;;;;;-142.57;100.00;57299.59;5054235;28;20036;-81
2023/09/25 05:07:47;;;;;;;2.65;1.80;;;;;;;-142.57;100.00;57331.94;5059550;28;20116;-81
2023/09/25 05:10:16;;;;;;;7.45;1.80;;;;;;;-142.57;100.00;57325.88;5057842;28;20059;-81
2023/09/25 05:12:43;;;;;;;5.50;2.28;;;;;;;-142.57;100.00;57261.19;5055773;28;20031;-81
2023/09/25 05:15:10;;;;;;;5.68;1.85;;;;;;;-142.57;100.00;57305.66;5052942;28;20044;-81
2023/09/25 05:17:37;;;;;;;3.92;1.95;;;;;;;-142.57;100.00;57289.47;5053775;28;20037;-82
2023/09/25 05:20:10;;;;;;;5.07;1.60;;;;;;;-142.57;100.00;57335.97;5053610;28;20039;-81
2023/09/25 05:22:40;;;;;;;3.42;1.90;;;;;;;-142.57;100.00;57380.44;5053318;28;20033;-81
2023/09/25 05:25:10;;;;;;;7.07;1.92;;;;;;;-142.57;100.00;57390.56;5051987;28;20028;-81
2023/09/25 05:27:41;;;;;;;4.45;1.40;;;;;;;-142.57;100.00;57325.88;5053052;28;20398;-81
2023/09/25 05:30:09;;;;;;;2.93;1.40;;;;;;;-142.57;100.00;57382.47;5052340;28;20029;-80
2023/09/25 05:32:39;;;;;;;4.50;1.80;;;;;;;-142.57;100.00;57487.56;5033605;28;20079;-82
2023/09/25 05:35:05;;;;;;;5.45;2.05;;;;;;;-142.57;100.00;57584.59;5031987;28;20041;-85
2023/09/25 05:37:32;;;;;;;6.03;1.92;;;;;;;-142.57;100.00;57625.03;5030722;28;20029;-84
2023/09/25 05:39:58;;;;;;;6.78;1.73;;;;;;;-142.57;100.00;57604.81;5032527;28;20049;-84
2023/09/25 05:42:27;;;;;;;3.97;1.90;;;;;;;-142.57;100.00;57623.00;5033083;28;20037;-83
2023/09/25 05:44:52;;;;;;;6.38;1.80;;;;;;;-142.57;100.00;57649.28;5033672;28;20210;-85
2023/09/25 05:47:18;;;;;;;6.60;1.67;;;;;;;-142.57;98.73;57772.59;5032926;28;20034;-83
2023/09/25 05:49:44;;;;;;;6.82;1.67;;;;;;;-142.57;99.03;57750.38;5032962;28;20030;-82
2023/09/25 05:52:12;;;;;;;2.08;1.38;;;;;;;-142.57;98.04;57867.63;5032177;28;20126;-83
2023/09/25 05:54:38;;;;;;;6.53;1.70;;;;;;;-142.57;96.12;57843.38;5047767;28;20052;-85
2023/09/25 05:57:07;;;;;;;8.25;1.75;;;;;;;-142.57;92.56;58081.94;5031380;28;20037;-83
2023/09/25 05:59:34;;;;;;;6.30;1.48;;;;;;;-142.57;81.48;58389.25;5032750;28;20556;-83
2023/09/25 06:02:03;;;;;;;3.83;1.38;;;;;;;-142.57;80.54;58534.81;5047663;28;20431;-87
2023/09/25 06:04:29;;;;;;;4.68;1.55;;;;;;;-142.57;75.00;58757.25;5053208;28;20063;-85
2023/09/25 06:06:55;;;;;;;2.30;1.20;;;;;;;-142.57;69.12;59139.44;5072836;28;20049;-84
2023/09/25 06:09:21;;;;;;;6.47;1.55;;;;;;;-142.57;69.07;58987.75;5075384;28;20041;-86
2023/09/25 06:11:48;;;;;;;4.03;1.30;;;;;;;-142.57;73.18;58583.34;5074841;28;20041;-82
2023/09/25 06:14:14;;;;;;;5.10;1.40;;;;;;;-142.57;76.12;58381.16;5072775;28;20059;-82
2023/09/25 06:16:40;;;;;;;3.88;1.80;;;;;;;-142.57;74.77;58563.13;5055961;28;20037;-81
2023/09/25 06:19:07;;;;;;;8.80;1.58;;;;;;;-142.57;75.62;58474.16;5052370;28;20040;-83
2023/09/25 06:21:33;;;;;;;5.07;1.50;;;;;;;-142.57;73.85;58587.38;5063060;28;20048;-83
2023/09/25 06:23:59;;;;;;;6.30;1.10;;;;;;;-142.57;73.23;58654.13;5055153;28;20044;-82
2023/09/25 06:26:28;;;;;;;4.25;1.67;;;;;;;-142.57;69.78;58807.78;5051985;28;20037;-88
2023/09/25 06:28:55;;;;;;;4.55;1.20;;;;;;;-142.57;67.51;59151.56;5051673;28;20025;-83
2023/09/25 06:31:23;;;;;;;7.70;2.13;;;;;;;-142.57;66.39;59074.72;5051969;28;20021;-84
2023/09/25 06:33:50;;;;;;;8.85;1.90;;;;;;;-142.57;67.78;58965.53;5052415;28;20063;-83
2023/09/25 06:36:16;;;;;;;12.00;2.13;;;;;;;-142.57;67.57;58939.22;5050181;28;20037;-82
2023/09/25 06:38:42;;;;;;;7.88;1.60;;;;;;;-142.57;64.97;59545.94;5051596;28;20150;-83
2023/09/25 06:41:11;;;;;;;8.32;1.75;;;;;;;-142.57;62.79;59432.69;5051698;28;20029;-83
2023/09/25 06:43:37;;;;;;;7.75;1.70;;;;;;;-142.57;62.39;59428.63;5046290;28;20117;-82
2023/09/25 06:46:04;;;;;;;6.82;1.48;;;;;;;-142.57;62.41;59501.44;5033866;28;20034;-84
2023/09/25 06:48:32;;;;;;;4.10;1.10;;;;;;;-142.57;62.35;59489.31;5046875;28;20049;-83
2023/09/25 06:50:58;;;;;;;3.67;1.15;;;;;;;-142.57;63.10;59424.59;5035823;28;20125;-84
2023/09/25 06:53:24;;;;;;;5.53;1.48;;;;;;;-142.57;61.83;59655.16;5045298;28;20064;-83
2023/09/25 06:55:49;;;;;;;6.22;1.85;;;;;;;-142.57;57.92;59944.38;5043876;28;20068;-83
2023/09/25 06:58:15;;;;;;;4.05;1.50;;;;;;;-142.57;60.57;59513.56;5049882;28;20448;-78
2023/09/25 07:00:44;;;;;;;4.35;1.50;;;;;;;-142.57;60.63;59632.91;5050414;28;20033;-80
2023/09/25 07:03:09;;;;;;;4.68;1.90;;;;;;;-142.57;60.07;59590.44;5053591;28;20367;-81
2023/09/25 07:05:35;;;;;;;7.13;1.63;;;;;;;-142.57;60.52;59590.44;5053992;28;20040;-83
2023/09/25 07:08:01;;;;;;;9.38;1.13;;;;;;;-142.57;59.58;59736.06;5053571;28;20040;-80
2023/09/25 07:10:26;;;;;;;2.45;1.20;;;;;;;-142.57;59.39;59831.13;5036041;28;20044;-78
2023/09/25 07:12:52;;;;;;;4.55;1.20;;;;;;;-142.57;58.29;59964.59;5051910;28;20044;-81
2023/09/25 07:15:19;;;;;;;3.22;1.05;;;;;;;-142.57;56.83;60100.13;5054953;28;20029;-81
2023/09/25 07:17:47;;;;;;;2.88;0.85;;;;;;;-142.57;56.71;60251.84;5055589;28;20126;-84
2023/09/25 07:20:12;;;;;;;2.08;1.15;;;;;;;-142.57;57.21;60001.03;5055875;28;20045;-83
2023/09/25 07:22:38;;;;;;;5.10;0.98;;;;;;;-142.57;56.29;60108.22;5055847;28;20036;-81
2023/09/25 07:25:04;;;;;;;5.30;1.10;;;;;;;-142.57;54.69;60480.44;5053613;28;20067;-83
2023/09/25 07:27:32;;;;;;;1.58;0.98;;;;;;;-142.57;53.62;60460.19;5055190;28;20051;-84
2023/09/25 07:29:57;;;;;;;5.00;1.33;;;;;;;-142.57;53.07;60624.06;5055225;28;20121;-80
2023/09/25 07:32:23;;;;;;;3.67;1.08;;;;;;;-142.57;53.34;60458.19;5054120;28;20132;-81
2023/09/25 07:34:48;;;;;;;3.17;1.08;;;;;;;-142.57;53.60;60338.81;5055566;28;20067;-83
2023/09/25 07:37:14;;;;;;;2.22;1.20;;;;;;;-142.57;54.14;60207.34;5057147;28;20082;-87
2023/09/25 07:39:40;;;;;;;3.30;0.95;;;;;;;-142.57;53.20;60579.56;5056986;28;20075;-84
2023/09/25 07:42:07;;;;;;;6.15;2.17;;;;;;;-142.57;53.03;60444.03;5056447;28;20044;-83
2023/09/25 07:44:36;;;;;;;7.72;2.00;;;;;;;-142.57;52.64;60597.75;5055946;28;20033;-85
2023/09/25 07:47:06;;;;;;;5.10;2.10;;;;;;;-142.57;51.68;60791.97;5057582;28;20055;-83
2023/09/25 07:49:38;;;;;;;9.10;2.60;;;;;;;-142.57;50.39;61073.19;5056344;28;20037;-85
2023/09/25 07:52:15;;;;;;;5.22;3.00;;;;;;;-142.57;50.85;60913.38;5057350;28;20334;-90
2023/09/25 07:54:45;;;;;;;10.30;3.20;;;;;;;-142.57;51.98;61040.84;5056506;28;20078;-83
2023/09/25 07:57:16;;;;;;;6.80;3.35;;;;;;;-142.57;49.70;61263.41;5058093;28;20033;-82
2023/09/25 07:59:42;;;;;;;7.00;3.05;;;;;;;-142.57;51.50;60891.13;5049404;28;20097;-82
2023/09/25 08:02:08;;;;;;;5.88;2.58;;;;;;;-142.57;51.38;60961.94;5047899;28;20367;-84
2023/09/25 08:04:35;;;;;;;7.55;3.00;;;;;;;-142.57;51.63;60994.28;5048100;28;20072;-81
2023/09/25 08:07:06;;;;;;;8.55;2.90;;;;;;;-142.57;50.39;61307.91;5036241;28;20033;-83
2023/09/25 08:09:32;;;;;;;11.45;2.97;;;;;;;-142.57;49.41;61453.59;5036924;28;20087;-88
2023/09/25 08:11:59;;;;;;;6.95;2.78;;;;;;;-142.57;49.82;61475.84;5035225;28;20041;-85
2023/09/25 08:14:25;;;;;;;4.32;3.10;;;;;;;-142.57;48.32;61827.94;5034969;28;20068;-82
2023/09/25 08:16:51;;;;;;;6.35;3.30;;;;;;;-142.57;46.64;62131.50;5034965;28;20044;-84
2023/09/25 08:19:18;;;;;;;9.88;3.70;;;;;;;-142.57;46.28;61989.84;5034218;28;20037;-81
2023/09/25 08:21:47;;;;;;;5.68;3.70;;;;;;;-142.57;47.02;61933.19;5034217;28;20067;-82
2023/09/25 08:24:13;;;;;;;5.80;3.85;;;;;;;-142.57;47.85;61791.53;5033976;28;20049;-82
2023/09/25 08:26:39;;;;;;;7.97;4.05;;;;;;;-142.57;48.05;61971.63;5032905;28;20104;-81
2023/09/25 08:29:06;;;;;;;7.07;4.18;;;;;;;-142.57;48.53;61947.34;5032787;28;20067;-81
2023/09/25 08:31:32;;;;;;;10.85;4.75;;;;;;;-142.57;48.72;62176.03;5034556;28;20117;-80
2023/09/25 08:33:58;;;;;;;6.22;4.20;;;;;;;-142.57;46.50;62590.94;5033679;28;20025;-85
2023/09/25 08:36:24;;;;;;;8.40;4.10;;;;;;;-142.57;46.73;62437.13;5033949;28;20537;-85
2023/09/25 08:38:49;;;;;;;12.43;4.45;;;;;;;-142.57;47.57;62200.31;5034108;28;20034;-85
2023/09/25 08:41:19;;;;;;;8.77;4.68;;;;;;;-142.57;47.62;62374.38;5033668;28;20034;-80
2023/09/25 08:43:45;;;;;;;7.32;4.78;;;;;;;-142.57;46.58;62617.25;5033862;28;20414;-80
2023/09/25 08:46:12;;;;;;;7.05;3.88;;;;;;;-142.57;44.61;63244.75;5034252;28;20029;-84
2023/09/25 08:48:38;;;;;;;8.88;4.20;;;;;;;-142.57;43.31;63609.16;5035009;28;20488;-85
2023/09/25 08:51:05;;;;;;;7.72;4.35;;;;;;;-142.57;44.24;62997.78;5016541;28;20041;-88
2023/09/25 08:53:31;;;;;;;6.28;4.05;;;;;;;-142.57;44.87;62706.31;5014518;28;20363;-83
2023/09/25 08:56:00;;;;;;;9.10;4.57;;;;;;;-142.57;43.54;63107.09;5015429;28;20132;-86
2023/09/25 08:58:26;;;;;;;9.50;4.40;;;;;;;-142.57;43.86;62912.78;5016333;28;20026;-85
2023/09/25 09:00:53;;;;;;;7.93;4.68;;;;;;;-142.57;43.22;63005.88;5014169;28;20032;-85
2023/09/25 09:03:19;;;;;;;8.45;4.45;;;;;;;-142.57;43.17;63163.78;5015493;28;20040;-84
2023/09/25 09:05:46;;;;;;;11.43;4.70;;;;;;;-142.57;43.18;63011.97;5028070;28;20037;-82
2023/09/25 09:08:15;;;;;;;8.63;4.50;;;;;;;-142.57;43.71;63058.53;5030304;28;20049;-81
2023/09/25 09:10:42;;;;;;;7.65;5.00;;;;;;;-142.57;45.09;62718.47;5031571;28;20097;-81
2023/09/25 09:13:11;;;;;;;8.57;4.32;;;;;;;-142.57;42.93;63305.50;5031431;28;20069;-81
2023/09/25 09:15:38;;;;;;;13.30;4.60;;;;;;;-142.57;42.48;63455.28;5032231;28;20041;-84
2023/09/25 09:18:25;;;;;;;15.38;4.93;;;;;;;-142.57;41.83;63908.81;5032046;28;20042;-81
2023/09/25 09:20:52;;;;;;;8.82;4.18;;;;;;;-142.57;42.11;63406.72;5033314;28;20026;-81
2023/09/25 09:23:17;;;;;;;13.18;4.75;;;;;;;-142.57;41.86;63669.91;5034089;28;20110;-81
2023/09/25 09:25:45;;;;;;;7.38;4.63;;;;;;;-142.57;41.18;63702.28;5031504;28;20044;-87
2023/09/25 09:28:11;;;;;;;7.63;4.40;;;;;;;-142.57;41.37;63605.13;5033088;28;20089;-82
2023/09/25 09:30:37;;;;;;;7.63;4.40;;;;;;;-142.57;40.15;64054.59;5030165;28;20037;-84
2023/09/25 09:33:04;;;;;;;7.75;4.53;;;;;;;-142.57;39.86;63971.56;5025820;28;20048;-85
2023/09/25 09:35:30;;;;;;;9.05;3.85;;;;;;;-142.57;39.35;64151.78;5016574;28;20151;-85
2023/09/25 09:37:58;;;;;;;7.50;3.90;;;;;;;-142.57;39.45;64196.31;5020889;28;20064;-83
2023/09/25 09:40:27;;;;;;;13.00;4.88;;;;;;;-142.57;37.94;64496.00;5024915;28;20057;-81
2023/09/25 09:42:53;;;;;;;11.23;4.50;;;;;;;-142.57;38.59;64439.31;5026023;28;20034;-81
2023/09/25 09:45:20;;;;;;;10.18;3.80;;;;;;;-142.57;38.19;64728.91;5027550;28;20034;-81
2023/09/25 09:47:47;;;;;;;12.68;4.72;;;;;;;-142.57;38.98;64483.88;5027719;28;20126;-81
2023/09/25 09:50:17;;;;;;;9.60;4.43;;;;;;;-142.57;38.13;64990.16;5026477;28;20036;-81
2023/09/25 09:52:45;;;;;;;10.90;4.25;;;;;;;-142.57;37.71;64777.50;5027933;28;20102;-80
2023/09/25 09:55:14;;;;;;;7.95;4.35;;;;;;;-142.57;37.18;65095.47;5027832;28;20069;-81
2023/09/25 09:57:39;;;;;;;11.73;4.38;;;;;;;-142.57;37.08;64844.34;5027430;28;20551;-80
2023/09/25 10:00:07;;;;;;;7.45;4.28;;;;;;;-142.57;36.79;65095.47;5027934;28;20062;-82
2023/09/25 10:02:37;;;;;;;9.25;4.25;;;;;;;-142.57;36.70;65451.94;5029866;28;20045;-80
2023/09/25 10:05:04;;;;;;;9.60;4.03;;;;;;;-142.57;35.80;65618.03;5029364;28;20050;-81
2023/09/25 10:07:29;;;;;;;18.42;3.97;;;;;;;-142.57;34.75;65725.38;5029863;28;20102;-84
2023/09/25 10:10:04;;;;;;;14.80;4.10;;;;;;;-142.57;34.48;65816.53;5030208;28;20037;-82
2023/09/25 10:12:47;;;;;;;9.20;3.70;;;;;;;-142.57;34.70;65565.34;5030920;28;20033;-83
2023/09/25 10:15:18;;;;;;;7.55;3.58;;;;;;;-142.57;34.09;65613.97;5042261;28;20045;-82
2023/09/25 10:17:46;;;;;;;8.73;3.85;;;;;;;-142.57;35.08;65202.81;5044639;28;20040;-82
2023/09/25 10:20:45;;;;;;;7.82;3.60;;;;;;;-142.57;34.73;65504.59;5041414;28;20025;-82
2023/09/25 10:23:22;;;;;;;8.32;3.67;;;;;;;-142.57;33.40;66331.09;5034531;28;20033;-83
2023/09/25 10:26:08;;;;;;;6.38;2.78;;;;;;;-142.57;32.84;66590.41;5037608;28;20121;-84
2023/09/25 10:28:39;;;;;;;6.10;2.67;;;;;;;-142.57;32.36;66278.41;5043133;28;20128;-83
2023/09/25 10:31:18;;;;;;;4.78;2.45;;;;;;;-142.57;31.96;67064.53;5046718;28;20034;-82
2023/09/25 10:34:07;;;;;;;7.03;2.40;;;;;;;-142.57;31.39;67212.47;5043823;28;20045;-85
2023/09/25 10:36:41;;;;;;;6.55;2.03;;;;;;;-142.57;30.86;67180.06;5048373;28;20064;-87
2023/09/25 10:39:14;;;;;;;6.80;1.60;;;;;;;-142.57;30.97;66250.06;5039485;28;20044;-81
2023/09/25 10:41:42;;;;;;;4.80;1.75;;;;;;;-142.57;30.73;66158.88;5039442;28;20041;-82
2023/09/25 10:44:15;;;;;;;3.67;1.70;;;;;;;-142.57;29.76;66529.63;5039726;28;20039;-84
2023/09/25 10:46:41;;;;;;;3.95;2.08;;;;;;;-142.57;29.98;67117.22;5039939;28;20107;-85
2023/09/25 10:49:08;;;;;;;4.80;2.38;;;;;;;-142.57;30.88;67096.97;5038729;28;20371;-86
2023/09/25 10:51:35;;;;;;;8.25;2.78;;;;;;;-142.57;29.99;67996.75;5037116;28;20096;-85
2023/09/25 10:54:04;;;;;;;10.45;3.50;;;;;;;-142.57;30.75;66951.06;5037680;28;20529;-81
2023/09/25 10:56:30;;;;;;;7.50;2.30;;;;;;;-142.57;30.81;67376.63;5036430;28;20541;-85
2023/09/25 10:58:56;;;;;;;6.60;2.95;;;;;;;-142.57;31.56;66468.84;5030114;28;20394;-83
2023/09/25 11:01:30;;;;;;;15.30;3.50;;;;;;;-142.57;31.40;66886.25;5027867;28;20038;-80
2023/09/25 11:03:57;;;;;;;6.78;3.03;;;;;;;-142.57;31.31;66718.06;5035112;28;20029;-85
2023/09/25 11:06:26;;;;;;;6.65;2.83;;;;;;;-142.57;30.23;67088.88;5040040;28;20064;-85
2023/09/25 11:09:08;;;;;;;5.40;1.83;;;;;;;-142.57;28.69;66393.91;5043368;28;20037;-85
2023/09/25 11:11:34;;;;;;;3.03;2.00;;;;;;;-142.57;29.74;65978.59;5059613;28;20049;-86
2023/09/25 11:14:03;;;;;;;6.68;1.95;;;;;;;-142.57;29.11;66570.16;5041853;28;20037;-86
2023/09/25 11:16:33;;;;;;;4.95;2.00;;;;;;;-142.57;28.82;66746.44;5049702;28;20034;-90